createdAt,value
2024-05-09T00:02:03.731Z,16.36
2024-05-09T00:04:29.846Z,16.24
2024-05-09T00:06:56.015Z,16.22
2024-05-09T00:09:22.159Z,15.98
2024-05-09T00:11:48.378Z,16.18
2024-05-09T00:14:14.528Z,16.18
2024-05-09T00:16:40.618Z,16.25
2024-05-09T00:19:06.834Z,16.26
2024-05-09T00:21:32.941Z,16.36
2024-05-09T00:23:58.968Z,16.26
2024-05-09T00:26:25.138Z,16.24
2024-05-09T00:28:51.361Z,16.14
2024-05-09T00:31:17.587Z,16.23
2024-05-09T00:33:43.832Z,16.31
2024-05-09T00:36:09.961Z,16.26
2024-05-09T00:38:36.182Z,16.21
2024-05-09T00:41:02.403Z,16.23
2024-05-09T00:43:28.463Z,16.22
2024-05-09T00:45:56.814Z,16.13
2024-05-09T00:48:23.146Z,16.16
2024-05-09T00:50:50.317Z,16.15
2024-05-09T00:53:18.330Z,16.15
2024-05-09T00:55:45.955Z,16.18
2024-05-09T00:58:15.855Z,16.11
2024-05-09T01:00:42.796Z,16.05
2024-05-09T01:03:11.627Z,16.05
2024-05-09T01:05:39.833Z,16.19
2024-05-09T01:08:07.195Z,16.24
2024-05-09T01:10:35.255Z,16.10
2024-05-09T01:13:03.775Z,16.16
2024-05-09T01:15:29.992Z,16.24
2024-05-09T01:17:57.114Z,16.13
2024-05-09T01:20:32.103Z,16.15
2024-05-09T01:23:07.053Z,16.14
2024-05-09T01:25:33.227Z,16.20
2024-05-09T01:27:59.301Z,16.19
2024-05-09T01:30:31.935Z,16.27
2024-05-09T01:33:01.718Z,16.16
2024-05-09T01:35:28.087Z,16.20
2024-05-09T01:37:54.193Z,16.26
2024-05-09T01:40:25.361Z,16.21
2024-05-09T01:43:00.014Z,16.12
2024-05-09T01:45:26.046Z,16.07
2024-05-09T01:47:52.344Z,16.04
2024-05-09T01:50:22.542Z,16.15
2024-05-09T01:52:54.962Z,16.08
2024-05-09T01:55:21.184Z,16.12
2024-05-09T01:57:47.212Z,16.08
2024-05-09T02:02:45.051Z,16.15
2024-05-09T02:05:11.411Z,16.11
2024-05-09T02:07:37.626Z,16.15
2024-05-09T02:10:10.827Z,16.04
2024-05-09T02:12:42.171Z,16.11
2024-05-09T02:15:08.400Z,16.02
2024-05-09T02:17:34.600Z,16.08
2024-05-09T02:20:00.843Z,15.99
2024-05-09T02:22:26.907Z,16.04
2024-05-09T02:24:52.986Z,16.02
2024-05-09T02:27:19.039Z,15.98
2024-05-09T02:29:45.125Z,16.04
2024-05-09T02:32:11.252Z,16.07
2024-05-09T02:34:37.455Z,15.98
2024-05-09T02:37:03.647Z,16.01
2024-05-09T02:39:29.704Z,16.12
2024-05-09T02:41:55.721Z,16.08
2024-05-09T02:44:21.769Z,16.17
2024-05-09T02:46:47.861Z,16.12
2024-05-09T02:49:15.448Z,16.10
2024-05-09T02:51:41.623Z,16.08
2024-05-09T02:54:09.363Z,16.04
2024-05-09T02:56:35.494Z,16.04
2024-05-09T02:59:01.688Z,16.10
2024-05-09T03:01:27.773Z,16.17
2024-05-09T03:03:53.948Z,16.10
2024-05-09T03:06:20.101Z,16.11
2024-05-09T03:08:48.893Z,16.19
2024-05-09T03:11:24.930Z,16.13
2024-05-09T03:13:52.311Z,16.18
2024-05-09T03:16:18.786Z,16.12
2024-05-09T03:18:45.340Z,16.16
2024-05-09T03:21:11.591Z,16.16
2024-05-09T03:23:41.654Z,16.10
2024-05-09T03:26:16.012Z,16.09
2024-05-09T03:28:42.997Z,16.18
2024-05-09T03:31:09.115Z,16.13
2024-05-09T03:33:35.577Z,16.17
2024-05-09T03:36:04.243Z,16.04
2024-05-09T03:38:36.729Z,16.11
2024-05-09T03:41:02.992Z,16.11
2024-05-09T03:43:29.057Z,16.15
2024-05-09T03:45:55.373Z,16.11
2024-05-09T03:48:21.726Z,16.11
2024-05-09T03:50:48.105Z,16.13
2024-05-09T03:53:15.207Z,16.05
2024-05-09T03:55:41.354Z,16.12
2024-05-09T03:58:07.679Z,16.03
2024-05-09T04:00:38.216Z,16.15
2024-05-09T04:03:07.735Z,16.13
2024-05-09T04:05:37.263Z,16.04
2024-05-09T04:08:03.507Z,15.95
2024-05-09T04:10:33.402Z,15.86
2024-05-09T04:13:01.207Z,16.00
2024-05-09T04:15:27.340Z,16.02
2024-05-09T04:17:53.554Z,15.94
2024-05-09T04:20:29.277Z,16.01
2024-05-09T04:23:03.805Z,15.95
2024-05-09T04:25:31.394Z,16.09
2024-05-09T04:27:57.478Z,16.10
2024-05-09T04:30:34.281Z,16.00
2024-05-09T04:33:05.479Z,16.13
2024-05-09T04:35:31.751Z,16.05
2024-05-09T04:37:57.871Z,15.98
2024-05-09T04:40:31.238Z,15.89
2024-05-09T04:43:00.951Z,15.97
2024-05-09T04:45:27.039Z,15.91
2024-05-09T04:47:54.024Z,15.74
2024-05-09T04:50:29.343Z,15.86
2024-05-09T04:53:01.860Z,15.82
2024-05-09T04:55:28.156Z,15.93
2024-05-09T04:57:54.204Z,15.99
2024-05-09T05:00:28.641Z,16.01
2024-05-09T05:03:05.100Z,16.06
2024-05-09T05:05:31.569Z,16.06
2024-05-09T05:07:57.760Z,15.84
2024-05-09T05:10:32.958Z,15.96
2024-05-09T05:13:19.525Z,15.90
2024-05-09T05:15:47.319Z,16.21
2024-05-09T05:18:17.050Z,16.14
2024-05-09T05:20:43.783Z,16.26
2024-05-09T05:23:12.658Z,16.28
2024-05-09T05:25:39.430Z,16.34
2024-05-09T05:28:09.605Z,16.29
2024-05-09T05:30:37.360Z,16.42
2024-05-09T05:33:04.911Z,16.34
2024-05-09T05:35:31.140Z,16.45
2024-05-09T05:37:57.317Z,16.46
2024-05-09T05:40:32.209Z,16.57
2024-05-09T05:43:05.717Z,16.57
2024-05-09T05:45:31.829Z,16.54
2024-05-09T05:48:00.428Z,16.67
2024-05-09T05:50:32.966Z,16.70
2024-05-09T05:53:02.861Z,16.77
2024-05-09T05:55:29.016Z,16.81
2024-05-09T05:57:55.083Z,16.87
2024-05-09T06:00:29.101Z,16.77
2024-05-09T06:03:01.584Z,16.94
2024-05-09T06:05:28.184Z,17.04
2024-05-09T06:07:54.355Z,16.95
2024-05-09T06:10:25.494Z,17.13
2024-05-09T06:12:55.565Z,17.08
2024-05-09T06:15:21.610Z,17.25
2024-05-09T06:17:47.737Z,17.33
2024-05-09T06:20:20.572Z,17.47
2024-05-09T06:22:52.987Z,17.50
2024-05-09T06:25:19.084Z,17.80
2024-05-09T06:27:45.190Z,17.85
2024-05-09T06:30:24.817Z,17.98
2024-05-09T06:32:55.776Z,18.19
2024-05-09T06:35:21.994Z,18.14
2024-05-09T06:37:48.109Z,18.25
2024-05-09T06:40:17.483Z,18.46
2024-05-09T06:42:43.816Z,18.45
2024-05-09T06:45:09.867Z,18.40
2024-05-09T06:47:35.974Z,18.58
2024-05-09T06:50:02.810Z,18.52
2024-05-09T06:52:29.682Z,18.42
2024-05-09T06:54:56.003Z,18.43
2024-05-09T06:57:22.642Z,18.44
2024-05-09T06:59:48.699Z,18.39
2024-05-09T07:02:14.853Z,18.46
2024-05-09T07:04:41.059Z,18.28
2024-05-09T07:07:08.794Z,18.16
2024-05-09T07:09:34.848Z,18.24
2024-05-09T07:12:01.006Z,18.21
2024-05-09T07:14:27.379Z,18.19
2024-05-09T07:16:53.534Z,18.20
2024-05-09T07:19:19.782Z,17.97
2024-05-09T07:21:45.965Z,18.00
2024-05-09T07:24:11.996Z,18.11
2024-05-09T07:26:38.245Z,18.04
2024-05-09T07:29:04.391Z,17.87
2024-05-09T07:31:30.879Z,17.97
2024-05-09T07:33:57.121Z,18.10
2024-05-09T07:36:23.328Z,18.16
2024-05-09T07:38:49.440Z,18.20
2024-05-09T07:41:15.543Z,18.36
2024-05-09T07:43:43.749Z,18.54
2024-05-09T07:47:14.053Z,18.55
2024-05-09T07:50:35.602Z,18.93
2024-05-09T07:54:13.308Z,18.96
2024-05-09T07:56:39.849Z,18.96
2024-05-09T07:59:06.018Z,18.83
2024-05-09T08:01:32.192Z,18.94
2024-05-09T08:03:58.590Z,18.94
2024-05-09T08:06:25.328Z,19.09
2024-05-09T08:08:51.853Z,18.67
2024-05-09T08:11:19.161Z,18.87
2024-05-09T08:13:45.570Z,18.97
2024-05-09T08:16:13.755Z,18.91
2024-05-09T08:18:40.219Z,18.76
2024-05-09T08:21:06.390Z,18.66
2024-05-09T08:23:32.508Z,18.86
2024-05-09T08:25:58.610Z,18.91
2024-05-09T08:28:24.707Z,18.91
2024-05-09T08:30:50.985Z,19.08
2024-05-09T08:33:17.222Z,19.08
2024-05-09T08:35:43.405Z,19.32
2024-05-09T08:38:09.493Z,19.40
2024-05-09T08:40:37.411Z,19.48
2024-05-09T08:43:09.032Z,19.61
2024-05-09T08:45:38.213Z,19.78
2024-05-09T08:48:07.985Z,19.86
2024-05-09T08:50:38.982Z,19.82
2024-05-09T09:00:42.619Z,20.08
2024-05-09T09:03:10.898Z,20.34
2024-05-09T09:05:38.800Z,20.34
2024-05-09T09:08:07.141Z,20.50
2024-05-09T09:10:33.643Z,20.64
2024-05-09T09:13:04.007Z,20.72
2024-05-09T09:15:30.158Z,20.79
2024-05-09T09:17:58.287Z,20.67
2024-05-09T09:20:35.623Z,20.72
2024-05-09T09:23:03.593Z,20.78
2024-05-09T09:25:29.938Z,20.95
2024-05-09T09:27:57.846Z,21.06
2024-05-09T09:30:34.612Z,20.91
2024-05-09T09:33:03.933Z,20.92
2024-05-09T09:35:30.092Z,21.14
2024-05-09T09:37:59.839Z,21.22
2024-05-09T09:40:32.169Z,21.26
2024-05-09T09:43:01.087Z,21.14
2024-05-09T09:45:31.943Z,21.12
2024-05-09T09:47:58.812Z,21.23
2024-05-09T09:50:33.244Z,21.37
2024-05-09T09:53:00.834Z,21.47
2024-05-09T09:55:27.896Z,21.41
2024-05-09T09:57:55.387Z,21.31
2024-05-09T10:00:27.408Z,21.27
2024-05-09T10:02:58.540Z,21.28
2024-05-09T10:05:25.048Z,21.35
2024-05-09T10:07:52.755Z,21.26
2024-05-09T10:10:30.037Z,21.21
2024-05-09T10:12:59.505Z,21.27
2024-05-09T10:15:25.654Z,21.22
2024-05-09T10:17:51.817Z,21.22
2024-05-09T10:20:21.994Z,21.27
2024-05-09T10:22:51.605Z,21.32
2024-05-09T10:25:17.777Z,21.17
2024-05-09T10:27:54.987Z,21.31
2024-05-09T10:30:29.769Z,21.38
2024-05-09T10:33:01.734Z,21.28
2024-05-09T10:35:31.485Z,21.26
2024-05-09T10:38:05.407Z,21.22
2024-05-09T10:40:32.139Z,21.30
2024-05-09T10:43:01.969Z,21.29
2024-05-09T10:45:29.613Z,21.46
2024-05-09T10:47:55.854Z,21.58
2024-05-09T10:50:25.641Z,21.66
2024-05-09T10:52:55.027Z,21.59
2024-05-09T10:55:21.394Z,21.60
2024-05-09T10:57:47.783Z,21.64
2024-05-09T11:00:23.209Z,21.76
2024-05-09T11:02:56.191Z,21.64
2024-05-09T11:05:23.733Z,21.63
2024-05-09T11:07:50.496Z,21.62
2024-05-09T11:10:24.404Z,21.48
2024-05-09T11:12:53.555Z,21.56
2024-05-09T11:15:19.616Z,21.53
2024-05-09T11:17:45.806Z,21.60
2024-05-09T11:20:17.110Z,21.65
2024-05-09T11:22:49.180Z,21.74
2024-05-09T11:25:15.366Z,21.77
2024-05-09T11:27:41.840Z,21.77
2024-05-09T11:30:24.219Z,21.97
2024-05-09T11:32:58.068Z,21.96
2024-05-09T11:35:25.905Z,22.03
2024-05-09T11:37:51.958Z,22.14
2024-05-09T11:40:25.230Z,22.13
2024-05-09T11:42:54.560Z,22.04
2024-05-09T11:45:21.388Z,21.93
2024-05-09T11:50:22.389Z,21.84
2024-05-09T11:52:53.383Z,21.85
2024-05-09T11:55:19.765Z,21.85
2024-05-09T11:57:45.898Z,21.80
2024-05-09T12:00:18.194Z,21.83
2024-05-09T12:02:52.191Z,21.90
2024-05-09T12:05:18.495Z,21.93
2024-05-09T12:07:44.701Z,22.06
2024-05-09T12:10:16.577Z,22.05
2024-05-09T12:12:45.537Z,22.16
2024-05-09T12:15:11.968Z,22.06
2024-05-09T12:17:38.122Z,21.96
2024-05-09T12:20:09.027Z,22.05
2024-05-09T12:22:37.235Z,22.07
2024-05-09T12:25:04.316Z,22.22
2024-05-09T12:27:30.878Z,22.24
2024-05-09T12:29:56.978Z,22.26
2024-05-09T12:32:23.242Z,22.21
2024-05-09T12:34:49.339Z,22.13
2024-05-09T12:37:15.596Z,22.22
2024-05-09T12:39:41.719Z,22.18
2024-05-09T12:42:08.950Z,22.22
2024-05-09T12:44:35.863Z,22.28
2024-05-09T12:47:01.942Z,22.16
2024-05-09T12:49:28.317Z,22.22
2024-05-09T12:51:54.557Z,22.24
2024-05-09T12:54:20.681Z,22.29
2024-05-09T12:56:46.835Z,22.06
2024-05-09T12:59:12.863Z,22.16
2024-05-09T13:01:39.075Z,22.36
2024-05-09T13:04:05.377Z,22.35
2024-05-09T13:06:31.627Z,22.31
2024-05-09T13:08:57.791Z,22.36
2024-05-09T13:11:23.826Z,22.44
2024-05-09T13:13:49.993Z,22.39
2024-05-09T13:16:16.116Z,22.51
2024-05-09T13:18:43.685Z,22.49
2024-05-09T13:21:09.825Z,22.44
2024-05-09T13:23:39.210Z,22.57
2024-05-09T13:26:05.312Z,22.65
2024-05-09T13:28:32.981Z,22.66
2024-05-09T13:30:59.091Z,22.86
2024-05-09T13:33:25.266Z,22.86
2024-05-09T13:35:51.489Z,22.85
2024-05-09T13:38:19.516Z,22.77
2024-05-09T13:40:46.174Z,22.59
2024-05-09T13:43:12.734Z,22.66
2024-05-09T13:45:39.030Z,22.68
2024-05-09T13:48:06.115Z,22.69
2024-05-09T13:50:35.712Z,22.62
2024-05-09T13:53:07.867Z,22.64
2024-05-09T13:55:37.633Z,22.66
2024-05-09T13:58:04.178Z,22.51
2024-05-09T14:00:42.178Z,22.59
2024-05-09T14:03:13.914Z,22.54
2024-05-09T14:05:40.430Z,22.50
2024-05-09T14:08:08.022Z,22.54
2024-05-09T14:10:34.956Z,22.63
2024-05-09T14:13:01.376Z,22.58
2024-05-09T14:15:27.795Z,22.45
2024-05-09T14:17:54.687Z,22.61
2024-05-09T14:20:30.118Z,22.53
2024-05-09T14:22:58.566Z,22.52
2024-05-09T14:25:25.837Z,22.56
2024-05-09T14:27:51.962Z,22.60
2024-05-09T14:30:25.890Z,22.48
2024-05-09T14:32:59.844Z,22.59
2024-05-09T14:35:25.947Z,22.50
2024-05-09T14:37:52.023Z,22.69
2024-05-09T14:42:47.123Z,22.57
2024-05-09T14:45:13.239Z,22.58
2024-05-09T14:47:39.719Z,22.62
2024-05-09T14:50:07.075Z,22.59
2024-05-09T14:52:34.959Z,22.61
2024-05-09T14:55:01.294Z,22.58
2024-05-09T14:57:27.499Z,22.58
2024-05-09T14:59:53.533Z,22.49
2024-05-09T15:02:19.725Z,22.52
2024-05-09T15:04:46.095Z,22.47
2024-05-09T15:07:12.297Z,22.52
2024-05-09T15:09:38.422Z,22.58
2024-05-09T15:12:04.653Z,22.41
2024-05-09T15:14:30.702Z,22.57
2024-05-09T15:16:56.971Z,22.45
2024-05-09T15:19:23.169Z,22.53
2024-05-09T15:21:49.581Z,22.48
2024-05-09T15:24:15.657Z,22.51
2024-05-09T15:26:41.758Z,22.49
2024-05-09T15:29:07.821Z,22.57
2024-05-09T15:31:33.982Z,22.59
2024-05-09T15:34:00.383Z,22.55
2024-05-09T15:36:26.636Z,22.61
2024-05-09T15:38:54.990Z,22.55
2024-05-09T15:41:21.054Z,22.63
2024-05-09T15:43:47.113Z,22.52
2024-05-09T15:46:13.222Z,22.44
2024-05-09T15:48:44.342Z,22.36
2024-05-09T15:51:11.040Z,22.44
2024-05-09T15:53:37.102Z,22.52
2024-05-09T15:56:03.401Z,22.54
2024-05-09T15:58:29.584Z,22.48
2024-05-09T16:00:55.816Z,22.45
2024-05-09T16:03:22.008Z,22.52
2024-05-09T16:05:49.977Z,22.45
2024-05-09T16:08:16.245Z,22.49
2024-05-09T16:10:45.626Z,22.47
2024-05-09T16:13:12.660Z,22.52
2024-05-09T16:15:39.011Z,22.53
2024-05-09T16:18:05.474Z,22.51
2024-05-09T16:20:38.893Z,22.47
2024-05-09T16:23:07.932Z,22.46
2024-05-09T16:25:34.461Z,22.46
2024-05-09T16:28:00.961Z,22.50
2024-05-09T16:30:34.174Z,22.61
2024-05-09T16:33:03.056Z,22.61
2024-05-09T16:35:29.606Z,22.53
2024-05-09T16:37:55.760Z,22.53
2024-05-09T16:40:29.939Z,22.54
2024-05-09T16:43:03.440Z,22.46
2024-05-09T16:45:29.855Z,22.55
2024-05-09T16:47:56.315Z,22.57
2024-05-09T16:50:29.193Z,22.53
2024-05-09T16:52:58.780Z,22.52
2024-05-09T16:55:24.864Z,22.45
2024-05-09T16:57:51.458Z,22.52
2024-05-09T17:00:25.956Z,22.43
2024-05-09T17:03:01.531Z,22.50
2024-05-09T17:05:29.004Z,22.46
2024-05-09T17:07:55.638Z,22.38
2024-05-09T17:10:29.254Z,22.52
2024-05-09T17:12:58.810Z,22.49
2024-05-09T17:15:25.198Z,22.43
2024-05-09T17:17:51.311Z,22.34
2024-05-09T17:20:28.831Z,22.32
2024-05-09T17:22:59.394Z,22.29
2024-05-09T17:25:25.490Z,22.29
2024-05-09T17:27:51.730Z,22.11
2024-05-09T17:30:28.143Z,22.09
2024-05-09T17:32:58.960Z,22.04
2024-05-09T17:35:25.032Z,22.05
2024-05-09T17:37:51.182Z,21.94
2024-05-09T17:40:20.872Z,22.01
2024-05-09T17:42:53.863Z,21.91
2024-05-09T17:45:20.234Z,21.84
2024-05-09T17:47:47.034Z,21.77
2024-05-09T17:50:20.932Z,21.78
2024-05-09T17:52:53.123Z,21.65
2024-05-09T17:55:19.345Z,21.60
2024-05-09T17:57:45.596Z,21.42
2024-05-09T18:00:14.942Z,21.35
2024-05-09T18:02:43.647Z,21.20
2024-05-09T18:05:10.110Z,21.16
2024-05-09T18:07:36.185Z,20.99
2024-05-09T18:10:02.466Z,20.84
2024-05-09T18:12:28.732Z,20.69
2024-05-09T18:14:54.858Z,20.63
2024-05-09T18:17:23.583Z,20.55
2024-05-09T18:19:51.345Z,20.43
2024-05-09T18:22:17.521Z,20.29
2024-05-09T18:24:43.804Z,20.13
2024-05-09T18:27:10.196Z,20.05
2024-05-09T18:29:36.336Z,19.91
2024-05-09T18:32:02.444Z,19.76
2024-05-09T18:34:28.674Z,19.76
2024-05-09T18:36:54.901Z,19.69
2024-05-09T18:39:20.991Z,19.56
2024-05-09T18:41:47.035Z,19.37
2024-05-09T18:44:13.392Z,19.28
2024-05-09T18:46:39.508Z,19.16
2024-05-09T18:49:05.796Z,19.06
2024-05-09T18:51:32.031Z,18.98
2024-05-09T18:53:58.242Z,18.83
2024-05-09T18:56:24.318Z,18.76
2024-05-09T18:58:50.381Z,18.63
2024-05-09T19:01:16.604Z,18.56
2024-05-09T19:03:43.015Z,18.38
2024-05-09T19:06:09.415Z,18.35
2024-05-09T19:08:35.527Z,18.23
2024-05-09T19:11:01.642Z,18.19
2024-05-09T19:13:27.892Z,18.02
2024-05-09T19:15:54.063Z,17.96
2024-05-09T19:18:20.388Z,17.92
2024-05-09T19:20:46.590Z,17.80
2024-05-09T19:23:12.790Z,17.69
2024-05-09T19:25:38.950Z,17.72
2024-05-09T19:28:05.845Z,17.55
2024-05-09T19:30:38.876Z,17.50
2024-05-09T19:33:08.905Z,17.52
2024-05-09T19:35:35.482Z,17.43
2024-05-09T19:38:01.982Z,17.24
2024-05-09T19:40:31.812Z,17.30
2024-05-09T19:43:00.876Z,17.19
2024-05-09T19:45:27.217Z,17.04
2024-05-09T19:47:53.577Z,17.00
2024-05-09T19:50:26.992Z,16.89
2024-05-09T19:53:01.976Z,16.87
2024-05-09T19:55:28.080Z,16.69
2024-05-09T19:57:54.181Z,16.68
2024-05-09T20:00:26.523Z,16.71
2024-05-09T20:02:58.771Z,16.52
2024-05-09T20:05:25.033Z,16.51
2024-05-09T20:07:51.269Z,16.54
2024-05-09T20:10:23.734Z,16.46
2024-05-09T20:12:53.274Z,16.44
2024-05-09T20:15:19.357Z,16.41
2024-05-09T20:17:45.599Z,16.39
2024-05-09T20:20:20.301Z,16.29
2024-05-09T20:22:54.190Z,16.36
2024-05-09T20:25:20.260Z,16.26
2024-05-09T20:27:46.369Z,16.13
2024-05-09T20:30:17.049Z,16.21
2024-05-09T20:32:47.641Z,16.19
2024-05-09T20:35:13.959Z,16.05
2024-05-09T20:37:40.497Z,16.01
2024-05-09T20:40:12.016Z,15.90
2024-05-09T20:42:44.283Z,15.81
2024-05-09T20:45:10.356Z,15.83
2024-05-09T20:47:37.643Z,15.78
2024-05-09T20:50:09.061Z,15.69
2024-05-09T20:52:39.533Z,15.71
2024-05-09T20:55:05.961Z,15.69
2024-05-09T20:57:32.084Z,15.59
2024-05-09T20:59:58.184Z,15.54
2024-05-09T21:02:24.427Z,15.50
2024-05-09T21:04:50.997Z,15.40
2024-05-09T21:07:17.335Z,15.49
2024-05-09T21:09:43.521Z,15.42
2024-05-09T21:12:09.694Z,15.44
2024-05-09T21:14:35.958Z,15.20
2024-05-09T21:17:02.131Z,15.31
2024-05-09T21:19:28.256Z,15.36
2024-05-09T21:21:54.376Z,15.25
2024-05-09T21:24:20.487Z,15.21
2024-05-09T21:26:46.514Z,15.22
2024-05-09T21:29:12.570Z,15.17
2024-05-09T21:31:38.662Z,15.19
2024-05-09T21:34:04.884Z,15.16
2024-05-09T21:36:31.035Z,15.10
2024-05-09T21:38:57.071Z,15.08
2024-05-09T21:41:24.126Z,15.05
2024-05-09T21:43:50.179Z,15.01
2024-05-09T21:46:16.310Z,14.87
2024-05-09T21:48:42.547Z,14.85
2024-05-09T21:51:15.391Z,14.82
2024-05-09T21:53:41.552Z,14.82
2024-05-09T21:56:07.808Z,14.68
2024-05-09T21:58:33.887Z,14.74
2024-05-09T22:00:59.982Z,14.63
2024-05-09T22:03:26.256Z,14.55
2024-05-09T22:05:52.442Z,14.73
2024-05-09T22:08:18.526Z,14.60
2024-05-09T22:10:44.676Z,14.52
2024-05-09T22:13:10.874Z,14.59
2024-05-09T22:15:39.328Z,14.50
2024-05-09T22:18:06.959Z,14.45
2024-05-09T22:20:37.402Z,14.48
2024-05-09T22:23:05.508Z,14.39
2024-05-09T22:25:32.500Z,14.37
2024-05-09T22:28:00.142Z,14.40
2024-05-09T22:30:34.616Z,14.32
2024-05-09T22:33:05.089Z,14.35
2024-05-09T22:35:31.398Z,14.27
2024-05-09T22:37:57.456Z,14.24
2024-05-09T22:40:33.218Z,14.22
2024-05-09T22:43:09.111Z,14.11
2024-05-09T22:45:35.332Z,14.14
2024-05-09T22:48:01.631Z,14.03
2024-05-09T22:50:32.863Z,13.98
2024-05-09T22:52:59.686Z,13.96
2024-05-09T22:55:25.720Z,13.95
2024-05-09T22:57:51.862Z,13.99
2024-05-09T23:00:21.762Z,14.00
2024-05-09T23:02:52.245Z,13.93
2024-05-09T23:05:18.423Z,13.94
2024-05-09T23:07:44.496Z,13.91
2024-05-09T23:10:17.124Z,13.77
2024-05-09T23:12:47.674Z,13.78
2024-05-09T23:15:13.772Z,13.74
2024-05-09T23:17:39.936Z,13.67
2024-05-09T23:20:08.880Z,13.76
2024-05-09T23:22:37.251Z,13.64
2024-05-09T23:25:03.502Z,13.66
2024-05-09T23:27:29.573Z,13.62
2024-05-09T23:29:55.638Z,13.57
2024-05-09T23:32:21.840Z,13.65
2024-05-09T23:34:48.192Z,13.63
2024-05-09T23:37:14.513Z,13.48
2024-05-09T23:39:40.606Z,13.54
2024-05-09T23:42:06.888Z,13.47
2024-05-09T23:44:32.955Z,13.52
2024-05-09T23:46:59.157Z,13.47
2024-05-09T23:49:25.259Z,13.45
2024-05-09T23:51:51.330Z,13.44
2024-05-09T23:54:17.385Z,13.45
2024-05-09T23:56:43.438Z,13.38
2024-05-09T23:59:09.485Z,13.39
